ZFD weather

Fond-Du-Lac Airport
Fond-Du-Lac, Saskatchewan, Canada

Public forecast

Using degrees Celsius for public forecast. Weather courtesy of forecast.io.

METAR (pilot weather report)

Closest report is Stony Rapids Airport, 41.4 nm (76.7 km) E. Retrieved 2019/05/20 01:00 UTC (55 minutes ago):

CYSF 200100Z AUTO 15009KT 120V190 9SM CLR 21/M04 A3008 RMK SLP198 DENSITY ALT 1500FT

TAF (pilot weather forecast)

Forecast is more than 12 hours old.

Closest forecast is Stony Rapids Airport, 41.4 nm (76.7 km) E. Retrieved 2019/05/19 00:42 UTC (1 day ago):

TAF CYSF 192338Z 2000/2012 14008KT P6SM SKC TEMPO 2000/2012 5SM HZ RMK FCST BASED ON AUTO OBS. NXT FCST BY 200600Z